sensor_id;sensor_type;location;lat;lon;timestamp;noise_LAeq;noise_LA_min;noise_LA_max;noise_LA01;noise_LA95
74531;Laerm;63010;55.668;37.878;2022-12-18T00:02:03;52.86;42.12;66.54;;
74531;Laerm;63010;55.668;37.878;2022-12-18T00:04:29;48.06;41.74;59.14;;
74531;Laerm;63010;55.668;37.878;2022-12-18T00:06:55;49.18;42.03;61.14;;
74531;Laerm;63010;55.668;37.878;2022-12-18T00:09:20;49.78;41.01;63.45;;
74531;Laerm;63010;55.668;37.878;2022-12-18T00:11:46;47.87;41.32;61.04;;
74531;Laerm;63010;55.668;37.878;2022-12-18T00:14:13;48.37;40.78;61.19;;
74531;Laerm;63010;55.668;37.878;2022-12-18T00:16:39;48.51;41.29;62.26;;
74531;Laerm;63010;55.668;37.878;2022-12-18T00:19:05;47.67;41.04;62.27;;
74531;Laerm;63010;55.668;37.878;2022-12-18T00:21:31;48.74;40.77;64.04;;
74531;Laerm;63010;55.668;37.878;2022-12-18T00:23:59;47.83;41.55;61.26;;
74531;Laerm;63010;55.668;37.878;2022-12-18T00:26:29;48.09;41.47;60.58;;
74531;Laerm;63010;55.668;37.878;2022-12-18T00:28:59;48.32;41.58;61.88;;
74531;Laerm;63010;55.668;37.878;2022-12-18T00:31:25;48.43;40.48;59.33;;
74531;Laerm;63010;55.668;37.878;2022-12-18T00:33:53;48.86;41.61;60.60;;
74531;Laerm;63010;55.668;37.878;2022-12-18T00:36:22;47.39;40.90;59.86;;
74531;Laerm;63010;55.668;37.878;2022-12-18T00:38:48;47.77;40.66;61.02;;
74531;Laerm;63010;55.668;37.878;2022-12-18T00:41:15;48.38;42.11;64.17;;
74531;Laerm;63010;55.668;37.878;2022-12-18T00:44:02;47.62;41.98;65.27;;
74531;Laerm;63010;55.668;37.878;2022-12-18T00:46:28;48.63;42.68;62.25;;
74531;Laerm;63010;55.668;37.878;2022-12-18T00:48:54;45.20;39.89;57.06;;
74531;Laerm;63010;55.668;37.878;2022-12-18T00:51:19;45.99;40.30;58.75;;
74531;Laerm;63010;55.668;37.878;2022-12-18T00:53:45;47.36;41.90;56.38;;
74531;Laerm;63010;55.668;37.878;2022-12-18T00:56:10;49.81;42.35;59.73;;
74531;Laerm;63010;55.668;37.878;2022-12-18T00:58:36;49.31;42.96;61.40;;
74531;Laerm;63010;55.668;37.878;2022-12-18T01:01:04;49.86;42.49;68.92;;
74531;Laerm;63010;55.668;37.878;2022-12-18T01:03:30;48.73;42.71;60.17;;
74531;Laerm;63010;55.668;37.878;2022-12-18T01:05:56;47.81;42.15;58.67;;
74531;Laerm;63010;55.668;37.878;2022-12-18T01:08:21;47.60;41.02;55.89;;
74531;Laerm;63010;55.668;37.878;2022-12-18T01:10:47;47.43;42.04;55.86;;
74531;Laerm;63010;55.668;37.878;2022-12-18T01:13:13;49.52;42.37;64.52;;
74531;Laerm;63010;55.668;37.878;2022-12-18T01:15:38;47.96;41.79;56.92;;
74531;Laerm;63010;55.668;37.878;2022-12-18T01:18:05;51.05;42.06;68.84;;
74531;Laerm;63010;55.668;37.878;2022-12-18T01:20:31;47.71;42.69;56.14;;
74531;Laerm;63010;55.668;37.878;2022-12-18T01:22:56;48.98;42.87;60.59;;
74531;Laerm;63010;55.668;37.878;2022-12-18T01:25:22;47.26;42.01;59.48;;
74531;Laerm;63010;55.668;37.878;2022-12-18T01:27:48;49.12;40.49;60.17;;
74531;Laerm;63010;55.668;37.878;2022-12-18T01:30:13;47.12;40.38;56.18;;
74531;Laerm;63010;55.668;37.878;2022-12-18T01:32:39;48.81;40.82;58.85;;
74531;Laerm;63010;55.668;37.878;2022-12-18T01:35:05;48.67;42.39;57.84;;
74531;Laerm;63010;55.668;37.878;2022-12-18T01:37:31;48.02;41.83;58.84;;
74531;Laerm;63010;55.668;37.878;2022-12-18T01:39:56;47.56;40.93;57.14;;
74531;Laerm;63010;55.668;37.878;2022-12-18T01:42:22;46.42;40.34;59.57;;
74531;Laerm;63010;55.668;37.878;2022-12-18T01:50:16;48.26;42.38;59.22;;
74531;Laerm;63010;55.668;37.878;2022-12-18T01:52:47;50.27;43.51;66.48;;
74531;Laerm;63010;55.668;37.878;2022-12-18T01:55:15;49.35;41.07;59.81;;
74531;Laerm;63010;55.668;37.878;2022-12-18T01:57:41;51.31;42.71;71.22;;
74531;Laerm;63010;55.668;37.878;2022-12-18T02:00:17;49.53;43.14;57.06;;
74531;Laerm;63010;55.668;37.878;2022-12-18T02:02:45;49.65;42.29;59.15;;
74531;Laerm;63010;55.668;37.878;2022-12-18T02:05:13;48.04;42.23;55.42;;
74531;Laerm;63010;55.668;37.878;2022-12-18T02:12:48;46.28;41.14;53.43;;
74531;Laerm;63010;55.668;37.878;2022-12-18T02:18:11;48.31;42.36;58.63;;
74531;Laerm;63010;55.668;37.878;2022-12-18T02:20:45;49.83;41.14;61.27;;
74531;Laerm;63010;55.668;37.878;2022-12-18T02:28:59;48.37;41.41;62.78;;
74531;Laerm;63010;55.668;37.878;2022-12-18T02:31:29;47.58;41.30;60.08;;
74531;Laerm;63010;55.668;37.878;2022-12-18T02:34:00;48.50;39.48;63.04;;
74531;Laerm;63010;55.668;37.878;2022-12-18T02:36:28;47.74;40.73;62.07;;
74531;Laerm;63010;55.668;37.878;2022-12-18T02:38:55;50.63;42.55;64.12;;
74531;Laerm;63010;55.668;37.878;2022-12-18T02:41:22;48.12;41.44;59.79;;
74531;Laerm;63010;55.668;37.878;2022-12-18T02:43:48;47.34;42.36;57.67;;
74531;Laerm;63010;55.668;37.878;2022-12-18T02:46:28;48.62;41.61;58.86;;
74531;Laerm;63010;55.668;37.878;2022-12-18T02:49:01;47.15;40.90;58.17;;
74531;Laerm;63010;55.668;37.878;2022-12-18T02:51:44;48.68;42.60;61.24;;
74531;Laerm;63010;55.668;37.878;2022-12-18T02:56:59;49.35;42.39;58.47;;
74531;Laerm;63010;55.668;37.878;2022-12-18T03:00:03;48.35;42.74;58.31;;
74531;Laerm;63010;55.668;37.878;2022-12-18T03:02:41;47.73;42.12;62.52;;
74531;Laerm;63010;55.668;37.878;2022-12-18T03:05:20;48.17;42.34;60.58;;
74531;Laerm;63010;55.668;37.878;2022-12-18T03:07:56;50.19;43.53;62.01;;
74531;Laerm;63010;55.668;37.878;2022-12-18T03:10:29;47.82;42.09;54.24;;
74531;Laerm;63010;55.668;37.878;2022-12-18T03:13:09;47.84;41.86;55.45;;
74531;Laerm;63010;55.668;37.878;2022-12-18T03:15:38;48.94;44.41;57.22;;
74531;Laerm;63010;55.668;37.878;2022-12-18T03:18:18;48.82;43.36;58.70;;
74531;Laerm;63010;55.668;37.878;2022-12-18T03:20:47;49.02;42.05;60.41;;
74531;Laerm;63010;55.668;37.878;2022-12-18T03:23:21;48.71;42.45;57.74;;
74531;Laerm;63010;55.668;37.878;2022-12-18T03:25:51;49.12;43.44;59.79;;
74531;Laerm;63010;55.668;37.878;2022-12-18T03:28:21;48.58;41.49;58.08;;
74531;Laerm;63010;55.668;37.878;2022-12-18T03:30:50;48.52;43.58;56.96;;
74531;Laerm;63010;55.668;37.878;2022-12-18T03:33:30;49.57;43.81;65.56;;
74531;Laerm;63010;55.668;37.878;2022-12-18T03:35:57;48.41;43.40;61.71;;
74531;Laerm;63010;55.668;37.878;2022-12-18T03:38:23;48.71;41.23;59.04;;
74531;Laerm;63010;55.668;37.878;2022-12-18T03:45:09;48.17;42.83;57.63;;
74531;Laerm;63010;55.668;37.878;2022-12-18T03:50:02;51.21;43.20;64.10;;
74531;Laerm;63010;55.668;37.878;2022-12-18T03:52:40;48.96;44.05;58.65;;
74531;Laerm;63010;55.668;37.878;2022-12-18T03:55:09;50.46;44.57;58.87;;
74531;Laerm;63010;55.668;37.878;2022-12-18T03:57:34;50.23;43.69;57.09;;
74531;Laerm;63010;55.668;37.878;2022-12-18T04:00:09;49.75;43.70;57.45;;
74531;Laerm;63010;55.668;37.878;2022-12-18T04:02:36;48.95;44.06;59.26;;
74531;Laerm;63010;55.668;37.878;2022-12-18T04:05:05;48.36;43.13;59.71;;
74531;Laerm;63010;55.668;37.878;2022-12-18T04:07:32;49.17;43.55;60.37;;
74531;Laerm;63010;55.668;37.878;2022-12-18T04:09:59;49.02;44.23;57.21;;
74531;Laerm;63010;55.668;37.878;2022-12-18T04:12:29;48.18;43.65;58.91;;
74531;Laerm;63010;55.668;37.878;2022-12-18T04:14:55;48.57;43.83;56.99;;
74531;Laerm;63010;55.668;37.878;2022-12-18T04:17:20;49.15;44.17;59.89;;
74531;Laerm;63010;55.668;37.878;2022-12-18T04:19:46;48.21;43.07;59.45;;
74531;Laerm;63010;55.668;37.878;2022-12-18T04:22:12;49.81;44.37;57.33;;
74531;Laerm;63010;55.668;37.878;2022-12-18T04:24:38;49.45;43.65;60.51;;
74531;Laerm;63010;55.668;37.878;2022-12-18T04:27:04;50.51;44.62;61.55;;
74531;Laerm;63010;55.668;37.878;2022-12-18T04:29:29;49.71;43.76;57.95;;
74531;Laerm;63010;55.668;37.878;2022-12-18T04:31:55;49.54;45.20;57.83;;
74531;Laerm;63010;55.668;37.878;2022-12-18T04:34:21;51.14;44.28;61.46;;
74531;Laerm;63010;55.668;37.878;2022-12-18T04:36:46;49.72;44.35;57.73;;
74531;Laerm;63010;55.668;37.878;2022-12-18T04:39:12;48.41;43.19;60.46;;
74531;Laerm;63010;55.668;37.878;2022-12-18T04:41:38;48.48;43.32;58.38;;
74531;Laerm;63010;55.668;37.878;2022-12-18T04:44:04;50.21;43.88;63.12;;
74531;Laerm;63010;55.668;37.878;2022-12-18T04:46:30;51.04;44.82;66.86;;
74531;Laerm;63010;55.668;37.878;2022-12-18T04:48:55;48.29;43.45;56.86;;
74531;Laerm;63010;55.668;37.878;2022-12-18T04:51:21;49.71;44.08;57.97;;
74531;Laerm;63010;55.668;37.878;2022-12-18T04:53:46;49.51;45.22;56.15;;
74531;Laerm;63010;55.668;37.878;2022-12-18T04:56:14;50.44;44.79;65.08;;
74531;Laerm;63010;55.668;37.878;2022-12-18T04:58:42;50.10;45.34;58.05;;
74531;Laerm;63010;55.668;37.878;2022-12-18T05:01:09;52.11;44.84;65.64;;
74531;Laerm;63010;55.668;37.878;2022-12-18T05:03:35;53.23;45.53;69.03;;
74531;Laerm;63010;55.668;37.878;2022-12-18T05:06:01;51.64;45.38;62.78;;
74531;Laerm;63010;55.668;37.878;2022-12-18T05:08:27;50.96;44.33;65.17;;
74531;Laerm;63010;55.668;37.878;2022-12-18T05:11:07;50.14;44.61;61.47;;
74531;Laerm;63010;55.668;37.878;2022-12-18T05:13:34;54.30;46.39;69.52;;
74531;Laerm;63010;55.668;37.878;2022-12-18T05:16:00;51.30;44.50;62.24;;
74531;Laerm;63010;55.668;37.878;2022-12-18T05:18:26;50.50;45.13;61.28;;
74531;Laerm;63010;55.668;37.878;2022-12-18T05:20:53;52.93;44.70;67.03;;
74531;Laerm;63010;55.668;37.878;2022-12-18T05:23:19;52.34;45.60;69.29;;
74531;Laerm;63010;55.668;37.878;2022-12-18T05:25:53;50.21;46.18;58.73;;
74531;Laerm;63010;55.668;37.878;2022-12-18T05:28:20;51.54;45.51;61.16;;
74531;Laerm;63010;55.668;37.878;2022-12-18T05:30:50;50.24;46.14;57.40;;
74531;Laerm;63010;55.668;37.878;2022-12-18T05:33:17;49.54;45.11;56.61;;
74531;Laerm;63010;55.668;37.878;2022-12-18T05:35:43;49.32;44.77;56.92;;
74531;Laerm;63010;55.668;37.878;2022-12-18T05:38:08;49.35;44.29;64.10;;
74531;Laerm;63010;55.668;37.878;2022-12-18T05:40:34;48.88;44.15;59.12;;
74531;Laerm;63010;55.668;37.878;2022-12-18T05:42:59;50.13;43.91;61.49;;
74531;Laerm;63010;55.668;37.878;2022-12-18T05:45:25;48.98;43.12;64.09;;
74531;Laerm;63010;55.668;37.878;2022-12-18T05:47:50;49.76;44.60;57.65;;
74531;Laerm;63010;55.668;37.878;2022-12-18T05:50:16;49.26;45.20;60.38;;
74531;Laerm;63010;55.668;37.878;2022-12-18T05:52:42;50.52;45.52;60.96;;
74531;Laerm;63010;55.668;37.878;2022-12-18T05:55:07;49.96;45.00;63.03;;
74531;Laerm;63010;55.668;37.878;2022-12-18T05:57:33;50.92;46.27;62.37;;
74531;Laerm;63010;55.668;37.878;2022-12-18T06:00:00;50.91;46.54;58.75;;
74531;Laerm;63010;55.668;37.878;2022-12-18T06:02:25;49.90;45.04;57.28;;
74531;Laerm;63010;55.668;37.878;2022-12-18T06:04:51;49.68;45.50;61.20;;
74531;Laerm;63010;55.668;37.878;2022-12-18T06:07:16;50.54;46.66;60.24;;
74531;Laerm;63010;55.668;37.878;2022-12-18T06:09:42;50.79;45.97;62.39;;
74531;Laerm;63010;55.668;37.878;2022-12-18T06:12:08;49.10;44.27;57.48;;
74531;Laerm;63010;55.668;37.878;2022-12-18T06:14:33;52.91;45.88;72.53;;
74531;Laerm;63010;55.668;37.878;2022-12-18T06:16:59;49.66;44.25;66.52;;
74531;Laerm;63010;55.668;37.878;2022-12-18T06:19:25;52.41;46.03;63.95;;
74531;Laerm;63010;55.668;37.878;2022-12-18T06:21:50;50.62;44.98;62.57;;
74531;Laerm;63010;55.668;37.878;2022-12-18T06:24:16;49.66;43.92;67.00;;
74531;Laerm;63010;55.668;37.878;2022-12-18T06:26:42;50.39;44.40;68.40;;
74531;Laerm;63010;55.668;37.878;2022-12-18T06:29:08;49.98;45.28;61.97;;
74531;Laerm;63010;55.668;37.878;2022-12-18T06:31:33;56.25;44.18;82.82;;
74531;Laerm;63010;55.668;37.878;2022-12-18T06:34:02;49.79;45.40;60.57;;
74531;Laerm;63010;55.668;37.878;2022-12-18T06:36:29;49.06;44.20;58.99;;
74531;Laerm;63010;55.668;37.878;2022-12-18T06:38:56;48.35;43.06;58.17;;
74531;Laerm;63010;55.668;37.878;2022-12-18T06:41:22;48.15;43.39;56.24;;
74531;Laerm;63010;55.668;37.878;2022-12-18T06:43:47;48.85;44.05;58.49;;
74531;Laerm;63010;55.668;37.878;2022-12-18T06:46:13;50.02;44.70;61.22;;
74531;Laerm;63010;55.668;37.878;2022-12-18T06:48:39;52.65;43.38;67.69;;
74531;Laerm;63010;55.668;37.878;2022-12-18T06:51:05;49.03;44.91;60.98;;
74531;Laerm;63010;55.668;37.878;2022-12-18T06:53:32;48.24;44.10;58.43;;
74531;Laerm;63010;55.668;37.878;2022-12-18T06:56:05;51.47;44.21;62.51;;
74531;Laerm;63010;55.668;37.878;2022-12-18T06:58:32;50.21;45.42;68.25;;
74531;Laerm;63010;55.668;37.878;2022-12-18T07:01:05;48.90;44.52;60.17;;
74531;Laerm;63010;55.668;37.878;2022-12-18T07:03:31;48.88;44.51;58.47;;
74531;Laerm;63010;55.668;37.878;2022-12-18T07:05:57;49.36;44.90;57.43;;
74531;Laerm;63010;55.668;37.878;2022-12-18T07:08:23;49.02;44.90;58.95;;
74531;Laerm;63010;55.668;37.878;2022-12-18T07:10:48;50.33;45.94;58.55;;
74531;Laerm;63010;55.668;37.878;2022-12-18T07:13:18;51.68;45.18;61.74;;
74531;Laerm;63010;55.668;37.878;2022-12-18T07:15:43;52.10;45.59;62.77;;
74531;Laerm;63010;55.668;37.878;2022-12-18T07:18:09;53.23;46.01;66.72;;
74531;Laerm;63010;55.668;37.878;2022-12-18T07:20:36;49.81;45.44;56.57;;
74531;Laerm;63010;55.668;37.878;2022-12-18T07:23:03;51.74;45.63;63.45;;
74531;Laerm;63010;55.668;37.878;2022-12-18T07:25:29;49.20;44.73;58.15;;
74531;Laerm;63010;55.668;37.878;2022-12-18T07:27:54;50.00;44.54;59.02;;
74531;Laerm;63010;55.668;37.878;2022-12-18T07:30:20;50.39;45.07;63.92;;
74531;Laerm;63010;55.668;37.878;2022-12-18T07:32:46;49.75;45.82;57.40;;
74531;Laerm;63010;55.668;37.878;2022-12-18T07:35:12;51.75;44.31;66.00;;
74531;Laerm;63010;55.668;37.878;2022-12-18T07:37:38;49.47;43.84;57.32;;
74531;Laerm;63010;55.668;37.878;2022-12-18T07:40:04;49.76;45.02;65.47;;
74531;Laerm;63010;55.668;37.878;2022-12-18T07:42:29;50.04;45.61;64.08;;
74531;Laerm;63010;55.668;37.878;2022-12-18T07:44:59;49.83;45.55;55.44;;
74531;Laerm;63010;55.668;37.878;2022-12-18T07:47:25;50.11;45.59;62.67;;
74531;Laerm;63010;55.668;37.878;2022-12-18T07:49:51;50.75;45.70;66.48;;
74531;Laerm;63010;55.668;37.878;2022-12-18T07:52:17;50.23;44.63;62.34;;
74531;Laerm;63010;55.668;37.878;2022-12-18T07:54:42;49.27;44.93;58.56;;
74531;Laerm;63010;55.668;37.878;2022-12-18T07:57:08;50.47;45.58;65.68;;
74531;Laerm;63010;55.668;37.878;2022-12-18T07:59:34;50.03;44.36;68.50;;
74531;Laerm;63010;55.668;37.878;2022-12-18T08:02:00;51.14;44.69;67.80;;
74531;Laerm;63010;55.668;37.878;2022-12-18T08:04:26;49.29;45.24;57.92;;
74531;Laerm;63010;55.668;37.878;2022-12-18T08:06:52;53.42;44.25;69.42;;
74531;Laerm;63010;55.668;37.878;2022-12-18T08:09:17;51.87;45.16;65.83;;
74531;Laerm;63010;55.668;37.878;2022-12-18T08:11:43;48.48;43.30;60.20;;
74531;Laerm;63010;55.668;37.878;2022-12-18T08:14:09;49.52;44.40;57.19;;
74531;Laerm;63010;55.668;37.878;2022-12-18T08:16:35;48.76;43.71;56.29;;
74531;Laerm;63010;55.668;37.878;2022-12-18T08:19:00;48.83;44.50;67.33;;
74531;Laerm;63010;55.668;37.878;2022-12-18T08:21:30;49.25;44.70;58.94;;
74531;Laerm;63010;55.668;37.878;2022-12-18T08:24:00;52.75;48.00;58.35;;
74531;Laerm;63010;55.668;37.878;2022-12-18T08:26:28;53.78;49.07;62.46;;
74531;Laerm;63010;55.668;37.878;2022-12-18T08:28:55;54.84;49.50;69.68;;
74531;Laerm;63010;55.668;37.878;2022-12-18T08:31:21;56.01;50.85;63.98;;
74531;Laerm;63010;55.668;37.878;2022-12-18T08:33:52;57.44;50.27;62.39;;
74531;Laerm;63010;55.668;37.878;2022-12-18T08:36:19;57.82;53.20;63.78;;
74531;Laerm;63010;55.668;37.878;2022-12-18T08:38:45;57.86;49.72;76.76;;
74531;Laerm;63010;55.668;37.878;2022-12-18T08:41:13;55.63;50.52;62.76;;
74531;Laerm;63010;55.668;37.878;2022-12-18T08:43:39;57.21;52.08;63.18;;
74531;Laerm;63010;55.668;37.878;2022-12-18T08:46:26;58.55;51.69;65.23;;
74531;Laerm;63010;55.668;37.878;2022-12-18T08:48:53;59.17;52.93;66.03;;
74531;Laerm;63010;55.668;37.878;2022-12-18T08:51:20;59.03;51.53;65.01;;
74531;Laerm;63010;55.668;37.878;2022-12-18T08:53:46;58.71;52.24;68.07;;
74531;Laerm;63010;55.668;37.878;2022-12-18T08:56:13;58.95;51.82;71.70;;
74531;Laerm;63010;55.668;37.878;2022-12-18T08:58:39;57.16;50.09;68.61;;
74531;Laerm;63010;55.668;37.878;2022-12-18T09:01:07;58.95;53.71;65.15;;
74531;Laerm;63010;55.668;37.878;2022-12-18T09:03:34;58.28;52.95;64.98;;
74531;Laerm;63010;55.668;37.878;2022-12-18T09:06:01;58.57;52.07;67.29;;
74531;Laerm;63010;55.668;37.878;2022-12-18T09:08:27;57.22;49.25;77.10;;
74531;Laerm;63010;55.668;37.878;2022-12-18T09:10:53;58.20;51.37;64.34;;
74531;Laerm;63010;55.668;37.878;2022-12-18T09:13:19;57.96;51.25;69.23;;
74531;Laerm;63010;55.668;37.878;2022-12-18T09:15:48;57.43;50.97;67.20;;
74531;Laerm;63010;55.668;37.878;2022-12-18T09:18:15;55.21;48.23;61.40;;
74531;Laerm;63010;55.668;37.878;2022-12-18T09:20:41;56.02;46.22;68.03;;
74531;Laerm;63010;55.668;37.878;2022-12-18T09:23:07;50.50;43.98;61.42;;
74531;Laerm;63010;55.668;37.878;2022-12-18T09:25:33;48.51;43.86;63.44;;
74531;Laerm;63010;55.668;37.878;2022-12-18T09:28:02;49.63;44.14;78.59;;
74531;Laerm;63010;55.668;37.878;2022-12-18T09:30:28;48.72;43.22;55.35;;
74531;Laerm;63010;55.668;37.878;2022-12-18T09:32:54;49.21;44.40;56.64;;
74531;Laerm;63010;55.668;37.878;2022-12-18T09:35:20;52.78;44.31;70.86;;
74531;Laerm;63010;55.668;37.878;2022-12-18T09:37:45;48.16;43.60;58.28;;
74531;Laerm;63010;55.668;37.878;2022-12-18T09:40:20;48.79;44.52;63.31;;
74531;Laerm;63010;55.668;37.878;2022-12-18T09:42:51;48.64;44.48;54.99;;
74531;Laerm;63010;55.668;37.878;2022-12-18T09:45:19;47.97;43.63;56.35;;
74531;Laerm;63010;55.668;37.878;2022-12-18T09:47:47;49.17;44.67;56.23;;
74531;Laerm;63010;55.668;37.878;2022-12-18T09:50:30;48.84;42.72;64.23;;
74531;Laerm;63010;55.668;37.878;2022-12-18T09:53:00;49.04;43.87;61.15;;
74531;Laerm;63010;55.668;37.878;2022-12-18T09:55:41;49.61;43.84;58.67;;
74531;Laerm;63010;55.668;37.878;2022-12-18T09:58:36;49.35;44.39;58.35;;
74531;Laerm;63010;55.668;37.878;2022-12-18T10:01:17;50.38;44.66;61.51;;
74531;Laerm;63010;55.668;37.878;2022-12-18T10:03:44;50.34;44.09;63.14;;
74531;Laerm;63010;55.668;37.878;2022-12-18T10:06:18;49.32;45.22;60.13;;
74531;Laerm;63010;55.668;37.878;2022-12-18T10:08:54;49.25;43.65;59.76;;
74531;Laerm;63010;55.668;37.878;2022-12-18T10:11:30;48.91;44.51;58.94;;
74531;Laerm;63010;55.668;37.878;2022-12-18T10:14:02;49.33;44.89;61.10;;
74531;Laerm;63010;55.668;37.878;2022-12-18T10:16:42;49.83;44.18;65.88;;
74531;Laerm;63010;55.668;37.878;2022-12-18T10:21:57;51.81;44.04;68.53;;
74531;Laerm;63010;55.668;37.878;2022-12-18T10:26:53;50.47;46.61;59.29;;
74531;Laerm;63010;55.668;37.878;2022-12-18T10:29:22;49.71;45.72;60.56;;
74531;Laerm;63010;55.668;37.878;2022-12-18T10:31:48;54.09;45.49;65.66;;
74531;Laerm;63010;55.668;37.878;2022-12-18T10:34:13;50.69;46.13;61.33;;
74531;Laerm;63010;55.668;37.878;2022-12-18T10:36:39;50.40;46.30;57.70;;
74531;Laerm;63010;55.668;37.878;2022-12-18T10:39:23;50.63;45.89;58.72;;
74531;Laerm;63010;55.668;37.878;2022-12-18T10:41:52;53.95;46.57;65.29;;
74531;Laerm;63010;55.668;37.878;2022-12-18T10:44:34;52.25;45.52;69.18;;
74531;Laerm;63010;55.668;37.878;2022-12-18T10:47:05;49.71;45.50;57.90;;
74531;Laerm;63010;55.668;37.878;2022-12-18T10:49:33;50.63;44.86;58.20;;
74531;Laerm;63010;55.668;37.878;2022-12-18T10:52:21;49.41;45.05;58.45;;
74531;Laerm;63010;55.668;37.878;2022-12-18T10:54:57;49.74;46.07;58.67;;
74531;Laerm;63010;55.668;37.878;2022-12-18T10:57:38;51.37;47.18;67.65;;
74531;Laerm;63010;55.668;37.878;2022-12-18T11:00:33;49.63;45.60;60.10;;
74531;Laerm;63010;55.668;37.878;2022-12-18T11:03:01;50.85;47.02;59.80;;
74531;Laerm;63010;55.668;37.878;2022-12-18T11:05:29;53.01;46.83;65.91;;
74531;Laerm;63010;55.668;37.878;2022-12-18T11:07:56;49.71;45.50;57.42;;
74531;Laerm;63010;55.668;37.878;2022-12-18T11:10:32;53.64;45.66;69.28;;
74531;Laerm;63010;55.668;37.878;2022-12-18T11:13:15;50.22;46.26;64.60;;
74531;Laerm;63010;55.668;37.878;2022-12-18T11:15:42;50.81;46.22;66.45;;
74531;Laerm;63010;55.668;37.878;2022-12-18T11:18:17;50.65;46.73;57.83;;
74531;Laerm;63010;55.668;37.878;2022-12-18T11:20:51;50.22;45.93;62.65;;
74531;Laerm;63010;55.668;37.878;2022-12-18T11:23:18;50.73;45.43;63.98;;
74531;Laerm;63010;55.668;37.878;2022-12-18T11:26:01;51.50;45.79;62.78;;
74531;Laerm;63010;55.668;37.878;2022-12-18T11:28:29;51.35;45.28;61.42;;
74531;Laerm;63010;55.668;37.878;2022-12-18T11:33:42;58.87;50.32;66.78;;
74531;Laerm;63010;55.668;37.878;2022-12-18T11:36:10;58.52;51.91;65.68;;
74531;Laerm;63010;55.668;37.878;2022-12-18T11:38:42;58.78;53.14;67.00;;
74531;Laerm;63010;55.668;37.878;2022-12-18T11:43:54;56.44;49.17;75.71;;
74531;Laerm;63010;55.668;37.878;2022-12-18T11:49:07;52.56;48.29;62.91;;
74531;Laerm;63010;55.668;37.878;2022-12-18T11:52:04;56.36;49.49;66.26;;
74531;Laerm;63010;55.668;37.878;2022-12-18T11:54:35;54.35;46.31;64.14;;
74531;Laerm;63010;55.668;37.878;2022-12-18T12:00:15;55.85;47.56;63.04;;
74531;Laerm;63010;55.668;37.878;2022-12-18T12:14:19;49.59;45.44;58.97;;
74531;Laerm;63010;55.668;37.878;2022-12-18T12:16:59;50.44;45.52;61.30;;
74531;Laerm;63010;55.668;37.878;2022-12-18T12:19:44;53.31;46.13;75.44;;
74531;Laerm;63010;55.668;37.878;2022-12-18T12:30:51;50.01;44.78;63.58;;
74531;Laerm;63010;55.668;37.878;2022-12-18T12:38:54;57.32;46.44;70.17;;
74531;Laerm;63010;55.668;37.878;2022-12-18T12:41:23;50.91;46.00;58.53;;
74531;Laerm;63010;55.668;37.878;2022-12-18T12:44:17;51.38;45.51;58.77;;
74531;Laerm;63010;55.668;37.878;2022-12-18T12:46:44;53.28;46.49;63.39;;
74531;Laerm;63010;55.668;37.878;2022-12-18T12:49:18;51.16;46.25;66.00;;
74531;Laerm;63010;55.668;37.878;2022-12-18T12:51:49;50.88;46.12;65.35;;
74531;Laerm;63010;55.668;37.878;2022-12-18T12:54:20;49.16;44.43;60.45;;
74531;Laerm;63010;55.668;37.878;2022-12-18T12:57:26;50.08;45.86;59.57;;
74531;Laerm;63010;55.668;37.878;2022-12-18T13:00:03;50.67;44.70;61.44;;
74531;Laerm;63010;55.668;37.878;2022-12-18T13:02:39;49.96;45.25;58.39;;
74531;Laerm;63010;55.668;37.878;2022-12-18T13:08:24;49.51;45.05;62.84;;
74531;Laerm;63010;55.668;37.878;2022-12-18T13:10:51;49.88;46.02;58.18;;
74531;Laerm;63010;55.668;37.878;2022-12-18T13:14:03;51.16;46.46;72.28;;
74531;Laerm;63010;55.668;37.878;2022-12-18T13:16:29;49.88;45.82;58.23;;
74531;Laerm;63010;55.668;37.878;2022-12-18T13:18:55;50.48;45.94;59.90;;
74531;Laerm;63010;55.668;37.878;2022-12-18T13:21:27;50.42;45.55;64.22;;
74531;Laerm;63010;55.668;37.878;2022-12-18T13:23:55;54.72;45.18;69.60;;
74531;Laerm;63010;55.668;37.878;2022-12-18T13:28:51;49.21;44.11;60.71;;
74531;Laerm;63010;55.668;37.878;2022-12-18T13:34:21;49.96;44.81;60.39;;
74531;Laerm;63010;55.668;37.878;2022-12-18T13:36:48;48.89;44.26;59.52;;
74531;Laerm;63010;55.668;37.878;2022-12-18T13:41:42;52.99;46.17;64.50;;
74531;Laerm;63010;55.668;37.878;2022-12-18T13:44:25;50.19;45.57;69.68;;
74531;Laerm;63010;55.668;37.878;2022-12-18T13:46:53;49.63;45.72;56.62;;
74531;Laerm;63010;55.668;37.878;2022-12-18T13:49:48;51.77;45.98;69.37;;
74531;Laerm;63010;55.668;37.878;2022-12-18T13:52:18;49.46;45.63;60.78;;
74531;Laerm;63010;55.668;37.878;2022-12-18T13:54:48;49.95;45.56;55.40;;
74531;Laerm;63010;55.668;37.878;2022-12-18T13:57:36;49.49;45.79;58.74;;
74531;Laerm;63010;55.668;37.878;2022-12-18T14:00:26;49.74;44.98;72.68;;
74531;Laerm;63010;55.668;37.878;2022-12-18T14:02:54;50.21;46.09;54.77;;
74531;Laerm;63010;55.668;37.878;2022-12-18T14:05:30;49.93;44.77;64.55;;
74531;Laerm;63010;55.668;37.878;2022-12-18T14:08:01;50.14;45.54;63.78;;
74531;Laerm;63010;55.668;37.878;2022-12-18T14:10:28;50.36;45.87;62.17;;
74531;Laerm;63010;55.668;37.878;2022-12-18T14:12:54;51.21;46.80;66.98;;
74531;Laerm;63010;55.668;37.878;2022-12-18T14:20:47;51.61;45.51;59.31;;
74531;Laerm;63010;55.668;37.878;2022-12-18T14:23:32;50.01;45.28;58.04;;
74531;Laerm;63010;55.668;37.878;2022-12-18T14:26:00;50.73;43.89;74.55;;
74531;Laerm;63010;55.668;37.878;2022-12-18T14:28:26;49.28;45.07;60.07;;
74531;Laerm;63010;55.668;37.878;2022-12-18T14:30:51;54.38;46.72;67.49;;
74531;Laerm;63010;55.668;37.878;2022-12-18T14:33:22;53.13;47.10;62.68;;
74531;Laerm;63010;55.668;37.878;2022-12-18T14:35:58;52.03;45.95;58.05;;
74531;Laerm;63010;55.668;37.878;2022-12-18T14:38:37;50.69;45.65;61.56;;
74531;Laerm;63010;55.668;37.878;2022-12-18T14:43:37;52.01;48.25;58.71;;
74531;Laerm;63010;55.668;37.878;2022-12-18T14:46:05;53.12;47.16;62.27;;
74531;Laerm;63010;55.668;37.878;2022-12-18T14:48:41;50.56;46.31;58.96;;
74531;Laerm;63010;55.668;37.878;2022-12-18T14:51:17;52.11;47.01;61.03;;
74531;Laerm;63010;55.668;37.878;2022-12-18T14:53:46;53.57;47.66;74.23;;
74531;Laerm;63010;55.668;37.878;2022-12-18T14:56:21;53.38;48.65;67.34;;
74531;Laerm;63010;55.668;37.878;2022-12-18T14:58:58;53.66;48.81;59.66;;
74531;Laerm;63010;55.668;37.878;2022-12-18T15:01:33;56.03;48.90;66.93;;
74531;Laerm;63010;55.668;37.878;2022-12-18T15:04:00;53.21;48.10;63.45;;
74531;Laerm;63010;55.668;37.878;2022-12-18T15:08:57;53.04;48.32;64.52;;
74531;Laerm;63010;55.668;37.878;2022-12-18T15:14:30;55.46;48.96;62.72;;
74531;Laerm;63010;55.668;37.878;2022-12-18T15:16:58;53.65;49.52;62.61;;
74531;Laerm;63010;55.668;37.878;2022-12-18T15:19:43;52.91;48.16;60.64;;
74531;Laerm;63010;55.668;37.878;2022-12-18T15:22:28;52.91;47.29;63.56;;